Time;durP1;ratioP1;P1;durP2;ratioP2;P2;SDS_P1;SDS_P2;PMS_P1;PMS_P2;Temp;Humidity;BMP_temperature;BMP_pressure;BME280_temperature;BME280_humidity;BME280_pressure;Samples;Min_cycle;Max_cycle;Signal;HPM_P1;HPM_P2
2023/01/26 00:00:56;;;;;;;411.27;77.38;;;1.60;99.90;;;0.27;100.00;97883.88;5090510;28;20414;-83
2023/01/26 00:03:22;;;;;;;398.17;72.70;;;1.60;99.90;;;0.24;100.00;97873.78;5081094;28;20418;-83
2023/01/26 00:05:48;;;;;;;404.23;70.03;;;1.60;99.90;;;0.22;100.00;97873.19;5092915;28;20763;-83
2023/01/26 00:08:14;;;;;;;425.30;74.38;;;1.60;99.90;;;0.22;100.00;97873.19;5089556;28;20419;-83
2023/01/26 00:10:48;;;;;;;362.27;68.80;;;1.60;99.90;;;0.20;100.00;97868.16;5087228;28;20421;-83
2023/01/26 00:13:19;;;;;;;386.00;72.28;;;1.60;99.90;;;0.19;100.00;97865.72;5091504;22;20492;-81
2023/01/26 00:15:46;;;;;;;376.85;70.47;;;1.50;99.90;;;0.20;100.00;97860.34;5072114;28;20408;-81
2023/01/26 00:18:13;;;;;;;470.55;83.47;;;1.50;99.90;;;0.11;100.00;97848.34;5076853;28;20402;-81
2023/01/26 00:20:39;;;;;;;442.85;82.63;;;1.40;99.90;;;0.08;100.00;97842.66;5082430;28;20824;-81
2023/01/26 00:23:05;;;;;;;411.42;72.72;;;1.40;99.90;;;0.07;100.00;97843.69;5071638;28;20408;-80
2023/01/26 00:25:31;;;;;;;360.37;64.77;;;1.40;99.90;;;0.09;100.00;97833.88;5071893;28;20525;-80
2023/01/26 00:27:57;;;;;;;490.55;87.57;;;1.40;99.90;;;0.07;100.00;97828.06;5071385;28;20406;-81
2023/01/26 00:30:23;;;;;;;505.08;80.68;;;1.40;99.90;;;0.03;100.00;97830.19;5071230;28;20416;-81
2023/01/26 00:32:50;;;;;;;468.17;78.65;;;1.40;99.90;;;0.01;100.00;97826.94;5071206;28;20396;-81
2023/01/26 00:35:16;;;;;;;458.07;83.53;;;1.40;99.90;;;0.01;100.00;97826.94;5071104;28;20830;-79
2023/01/26 00:37:42;;;;;;;347.52;70.15;;;1.40;99.90;;;0.05;100.00;97824.81;5071322;28;20399;-81
2023/01/26 00:40:10;;;;;;;403.50;79.53;;;1.30;99.90;;;-0.11;100.00;97817.94;5071395;28;20456;-81
2023/01/26 00:42:36;;;;;;;425.52;78.68;;;1.20;99.90;;;-0.25;100.00;97816.06;5070821;28;20465;-81
2023/01/26 00:45:03;;;;;;;387.05;73.63;;;1.10;99.90;;;-0.26;100.00;97809.25;5071280;28;20889;-81
2023/01/26 00:47:29;;;;;;;374.58;67.13;;;1.10;99.90;;;-0.23;100.00;97808.91;5070613;28;20820;-81
2023/01/26 00:49:56;;;;;;;409.47;69.77;;;1.10;99.90;;;-0.19;100.00;97816.19;5062592;28;20481;-81
2023/01/26 00:52:22;;;;;;;331.77;60.35;;;1.20;99.90;;;-0.16;100.00;97804.66;5070221;28;20403;-81
2023/01/26 00:54:48;;;;;;;319.50;59.25;;;1.20;99.90;;;-0.11;100.00;97803.13;5070660;28;20439;-81
2023/01/26 00:57:14;;;;;;;407.83;69.78;;;1.30;99.90;;;-0.08;100.00;97807.19;5062665;28;20411;-81
2023/01/26 00:59:40;;;;;;;371.07;65.27;;;1.30;99.90;;;-0.05;100.00;97799.03;5071147;28;20765;-81
2023/01/26 01:02:06;;;;;;;382.30;69.38;;;1.30;99.90;;;-0.04;100.00;97800.66;5070584;28;20412;-81
2023/01/26 01:04:32;;;;;;;384.80;65.67;;;1.30;99.90;;;-0.05;100.00;97793.81;5086613;28;20399;-81
2023/01/26 01:06:59;;;;;;;330.75;60.10;;;1.30;99.90;;;-0.03;100.00;97790.06;5069812;28;20447;-81
2023/01/26 01:09:25;;;;;;;409.35;66.85;;;1.30;99.90;;;0.01;100.00;97795.72;5071041;28;20406;-80
2023/01/26 01:11:51;;;;;;;412.67;66.18;;;1.40;99.90;;;0.00;100.00;97794.91;5070445;28;20400;-80
2023/01/26 01:14:17;;;;;;;487.10;76.72;;;1.40;99.90;;;0.02;100.00;97796.53;5070668;28;20757;-81
2023/01/26 01:16:44;;;;;;;365.20;66.15;;;1.40;99.90;;;0.00;100.00;97800.09;5070731;28;20396;-80
2023/01/26 01:19:14;;;;;;;375.10;65.32;;;1.40;99.90;;;0.02;100.00;97802.53;5070788;28;20757;-79
2023/01/26 01:21:40;;;;;;;431.30;70.50;;;1.40;99.90;;;0.01;100.00;97798.31;5070483;28;20456;-79
2023/01/26 01:24:08;;;;;;;368.90;63.30;;;1.40;99.90;;;0.04;100.00;97795.38;5070416;28;20412;-79
2023/01/26 01:26:34;;;;;;;345.83;60.63;;;1.40;99.90;;;0.06;100.00;97797.81;5070599;28;20445;-79
2023/01/26 01:29:00;;;;;;;389.73;65.32;;;1.40;99.90;;;0.06;100.00;97790.81;5070356;28;20429;-79
2023/01/26 01:31:28;;;;;;;432.98;65.13;;;1.40;99.90;;;0.06;100.00;97798.63;5060673;28;20901;-79
2023/01/26 01:33:54;;;;;;;394.05;62.15;;;1.40;99.90;;;0.07;100.00;97787.25;5070316;28;20879;-79
2023/01/26 01:36:20;;;;;;;394.10;61.55;;;1.40;99.90;;;0.08;100.00;97795.81;5070159;28;20457;-79
2023/01/26 01:38:46;;;;;;;400.55;62.90;;;1.40;99.90;;;0.08;100.00;97786.22;5061899;28;20403;-79
2023/01/26 01:41:18;;;;;;;472.23;64.68;;;1.40;99.90;;;0.06;100.00;97775.19;5070170;28;20431;-79
2023/01/26 01:43:44;;;;;;;394.42;60.42;;;1.40;99.90;;;0.07;100.00;97786.44;5069989;28;20507;-79
2023/01/26 01:46:30;;;;;;;331.10;56.07;;;1.40;99.90;;;0.06;100.00;97788.22;5070410;28;20433;-78
2023/01/26 01:49:01;;;;;;;365.37;58.07;;;1.40;99.90;;;0.08;100.00;97783.63;5070275;28;20774;-79
2023/01/26 01:51:33;;;;;;;320.70;54.08;;;1.50;99.90;;;0.09;100.00;97769.63;5070135;28;20757;-79
2023/01/26 01:54:10;;;;;;;396.20;64.15;;;1.40;99.90;;;0.08;100.00;97775.81;5070281;28;20396;-78
2023/01/26 01:56:42;;;;;;;397.80;62.17;;;1.40;99.90;;;0.08;100.00;97777.59;5050129;28;20409;-79
2023/01/26 01:59:10;;;;;;;338.42;56.90;;;1.40;99.90;;;0.06;100.00;97777.81;5050234;28;20449;-78
2023/01/26 02:01:36;;;;;;;395.52;62.17;;;1.40;99.90;;;0.06;100.00;97772.59;5049866;28;20905;-78
2023/01/26 02:04:05;;;;;;;338.38;58.33;;;1.40;99.90;;;0.06;100.00;97769.19;5049977;28;20417;-78
2023/01/26 02:06:38;;;;;;;392.50;58.90;;;1.40;99.90;;;0.06;100.00;97772.59;5050097;28;20786;-78
2023/01/26 02:09:05;;;;;;;339.10;57.65;;;1.40;99.90;;;0.05;100.00;97767.56;5050020;28;20396;-78
2023/01/26 02:11:37;;;;;;;389.42;60.40;;;1.40;99.90;;;0.04;100.00;97760.75;5049790;28;20426;-79
2023/01/26 02:14:08;;;;;;;352.38;58.55;;;1.40;99.90;;;0.02;100.00;97752.28;5053316;28;20397;-78
2023/01/26 02:16:35;;;;;;;414.40;63.28;;;1.40;99.90;;;0.02;100.00;97758.31;5056705;28;20429;-78
2023/01/26 02:19:01;;;;;;;402.23;59.15;;;1.40;99.90;;;0.00;100.00;97758.47;5056566;28;20416;-78
2023/01/26 02:21:27;;;;;;;404.70;59.45;;;1.40;99.90;;;0.02;100.00;97752.28;5056330;28;20451;-78
2023/01/26 02:24:11;;;;;;;394.25;59.42;;;1.40;99.90;;;0.03;100.00;97754.72;5056347;28;20452;-78
2023/01/26 02:26:38;;;;;;;427.80;60.03;;;1.40;99.90;;;0.04;100.00;97752.94;5056446;28;20447;-78
2023/01/26 02:29:09;;;;;;;354.58;53.30;;;1.40;99.90;;;0.03;100.00;97746.09;5056545;28;20454;-78
2023/01/26 02:31:36;;;;;;;425.88;59.30;;;1.40;99.90;;;0.03;100.00;97743.50;5062831;28;20776;-78
2023/01/26 02:34:02;;;;;;;314.35;52.10;;;1.40;99.90;;;0.03;100.00;97740.91;5076380;28;20399;-79
2023/01/26 02:36:31;;;;;;;326.60;53.03;;;1.40;99.90;;;0.03;100.00;97744.31;5076707;28;20404;-78
2023/01/26 02:39:19;;;;;;;300.90;50.90;;;1.40;99.90;;;0.04;100.00;97748.53;5076560;28;20406;-79
2023/01/26 02:44:33;;;;;;;395.85;59.55;;;1.40;99.90;;;0.05;100.00;97739.75;5076537;28;20472;-78
2023/01/26 02:46:59;;;;;;;349.92;56.42;;;1.40;99.90;;;0.05;100.00;97737.16;5076376;28;20904;-78
2023/01/26 02:52:09;;;;;;;398.55;59.97;;;1.40;99.90;;;0.06;100.00;97736.16;5076257;28;20445;-79
2023/01/26 02:57:20;;;;;;;332.27;53.40;;;1.40;99.90;;;0.06;100.00;97733.56;5076354;28;20488;-78
2023/01/26 02:59:46;;;;;;;313.70;52.70;;;1.40;99.90;;;0.06;100.00;97730.16;5056712;28;20486;-78
2023/01/26 03:02:12;;;;;;;339.50;52.75;;;1.40;99.90;;;0.06;100.00;97728.34;5055964;28;20405;-78
2023/01/26 03:04:38;;;;;;;399.85;58.20;;;1.40;99.90;;;0.02;100.00;97729.69;5056107;28;20471;-78
2023/01/26 03:07:04;;;;;;;269.73;48.00;;;1.40;99.90;;;0.01;100.00;97722.84;5056386;28;20484;-78
2023/01/26 03:09:30;;;;;;;296.90;49.53;;;1.40;99.90;;;0.01;100.00;97728.06;5056381;28;20516;-79
2023/01/26 03:11:56;;;;;;;353.20;54.67;;;1.40;99.90;;;0.00;100.00;97723.88;5055931;28;20409;-78
2023/01/26 03:14:23;;;;;;;283.13;48.70;;;1.40;99.90;;;0.01;100.00;97730.66;5056278;28;20409;-78
2023/01/26 03:16:49;;;;;;;282.90;48.08;;;1.40;99.90;;;0.00;100.00;97723.88;5056542;28;20435;-78
2023/01/26 03:27:33;;;;;;;329.98;47.13;;;1.40;99.90;;;-0.03;100.00;97708.59;5053178;28;20873;-78
2023/01/26 03:30:00;;;;;;;237.13;42.40;;;1.40;99.90;;;-0.03;100.00;97701.59;5053087;28;20429;-78
2023/01/26 03:32:26;;;;;;;325.33;47.03;;;1.30;99.90;;;-0.03;100.00;97696.41;5052671;28;20397;-79
2023/01/26 03:34:52;;;;;;;303.88;49.38;;;1.30;99.90;;;-0.03;100.00;97699.00;5060474;28;20403;-78
2023/01/26 03:37:21;;;;;;;301.55;47.83;;;1.30;99.90;;;-0.04;100.00;97689.56;5072940;28;20407;-78
2023/01/26 03:56:24;;;;;;;305.17;48.33;;;1.30;99.90;;;-0.07;100.00;97686.50;5072811;28;20431;-79
2023/01/26 03:58:52;;;;;;;286.67;48.67;;;1.30;99.90;;;-0.08;100.00;97690.91;5072487;28;20399;-79
2023/01/26 04:01:24;;;;;;;302.42;48.92;;;1.30;99.90;;;-0.08;100.00;97688.31;5072323;28;20411;-78
2023/01/26 04:09:25;;;;;;;331.55;50.70;;;1.30;99.90;;;-0.08;100.00;97693.53;5072359;28;20477;-78
2023/01/26 04:11:51;;;;;;;333.35;48.70;;;1.30;99.90;;;-0.06;100.00;97701.13;5071922;28;20403;-78
2023/01/26 04:22:39;;;;;;;352.50;53.33;;;1.30;99.90;;;-0.10;100.00;97690.28;5071688;28;20465;-78
2023/01/26 04:25:07;;;;;;;324.77;49.15;;;1.30;99.90;;;-0.11;100.00;97690.44;5071936;28;20400;-78
2023/01/26 04:27:33;;;;;;;312.48;49.25;;;1.30;99.90;;;-0.12;100.00;97694.84;5071955;28;20407;-78
2023/01/26 04:29:59;;;;;;;344.23;52.60;;;1.20;99.90;;;-0.09;100.00;97704.09;5071954;28;20494;-78
2023/01/26 04:32:27;;;;;;;314.70;48.58;;;1.30;99.90;;;-0.10;100.00;97698.09;5071582;28;20495;-78
2023/01/26 04:34:52;;;;;;;313.58;48.03;;;1.30;99.90;;;-0.11;100.00;97695.66;5071690;28;20522;-78
2023/01/26 04:37:18;;;;;;;311.95;49.65;;;1.20;99.90;;;-0.11;100.00;97693.03;5071265;28;20810;-78
2023/01/26 04:39:44;;;;;;;301.43;48.10;;;1.20;99.90;;;-0.13;100.00;97682.00;5071748;28;20491;-78
2023/01/26 04:42:10;;;;;;;242.40;40.53;;;1.20;99.90;;;-0.15;100.00;97676.97;5071508;28;20442;-78
2023/01/26 04:44:36;;;;;;;278.08;46.83;;;1.20;99.90;;;-0.15;100.00;97679.56;5071386;28;20415;-78
2023/01/26 04:47:02;;;;;;;274.70;44.47;;;1.20;99.90;;;-0.15;100.00;97676.19;5071121;28;20443;-79
2023/01/26 04:49:29;;;;;;;292.30;46.20;;;1.20;99.90;;;-0.18;100.00;97674.72;5069880;28;20822;-78
2023/01/26 04:51:55;;;;;;;295.08;46.97;;;1.20;99.90;;;-0.18;100.00;97674.72;5071115;28;20500;-78
2023/01/26 04:54:21;;;;;;;251.40;45.63;;;1.20;99.90;;;-0.18;100.00;97666.94;5065798;28;21834;-78
2023/01/26 04:56:47;;;;;;;292.15;46.53;;;1.20;99.90;;;-0.16;100.00;97669.38;5068992;28;20407;-78
2023/01/26 04:59:33;;;;;;;244.77;43.17;;;1.20;99.90;;;-0.15;100.00;97670.97;5065780;28;20960;-78
2023/01/26 05:01:59;;;;;;;242.90;44.03;;;1.20;99.90;;;-0.15;100.00;97678.78;5066427;28;20415;-78
2023/01/26 05:04:25;;;;;;;243.15;42.60;;;1.20;99.90;;;-0.16;100.00;97672.78;5070532;28;20415;-78
2023/01/26 05:06:53;;;;;;;267.48;44.53;;;1.20;99.90;;;-0.18;100.00;97669.53;5054295;28;20410;-77
2023/01/26 05:09:19;;;;;;;247.83;44.53;;;1.20;99.90;;;-0.15;100.00;97665.78;5067528;28;20443;-77
2023/01/26 05:11:44;;;;;;;264.83;45.15;;;1.20;99.90;;;-0.16;100.00;97671.97;5065287;28;20494;-78
2023/01/26 05:14:12;;;;;;;251.23;45.63;;;1.20;99.90;;;-0.15;100.00;97674.38;5060360;28;21247;-78
2023/01/26 05:16:38;;;;;;;265.08;47.88;;;1.20;99.90;;;-0.19;100.00;97665.31;5064172;28;20422;-78
2023/01/26 05:19:04;;;;;;;276.27;47.05;;;1.20;99.90;;;-0.23;100.00;97676.25;5062133;28;20397;-79
2023/01/26 05:21:30;;;;;;;291.90;48.58;;;1.10;99.90;;;-0.28;100.00;97676.75;5070491;28;20885;-80
2023/01/26 05:23:57;;;;;;;255.73;45.38;;;1.10;99.90;;;-0.28;100.00;97670.75;5070551;28;20415;-79
2023/01/26 05:26:23;;;;;;;265.58;48.10;;;1.10;99.90;;;-0.33;100.00;97673.88;5070608;28;20411;-78
2023/01/26 05:28:49;;;;;;;285.65;48.08;;;1.00;99.90;;;-0.34;100.00;97677.47;5070750;28;20391;-78
2023/01/26 05:31:15;;;;;;;290.33;48.70;;;1.00;99.90;;;-0.37;100.00;97685.59;5070553;28;20562;-79
2023/01/26 05:33:40;;;;;;;281.63;47.88;;;1.00;99.90;;;-0.33;100.00;97683.47;5070448;28;20434;-79
2023/01/26 05:36:07;;;;;;;276.40;47.70;;;1.00;99.90;;;-0.34;100.00;97677.47;5070560;28;20950;-78
2023/01/26 05:38:34;;;;;;;265.63;46.40;;;1.00;99.90;;;-0.34;100.00;97681.84;5070710;28;20396;-80
2023/01/26 05:41:01;;;;;;;273.38;47.47;;;1.00;99.90;;;-0.33;100.00;97679.09;5070497;28;20884;-80
2023/01/26 05:43:27;;;;;;;287.37;47.57;;;1.00;99.90;;;-0.30;100.00;97675.34;5068901;28;20594;-78
2023/01/26 05:45:53;;;;;;;260.95;48.20;;;1.10;99.90;;;-0.33;100.00;97684.28;5067434;28;20427;-77
2023/01/26 05:48:18;;;;;;;251.33;45.37;;;1.00;99.90;;;-0.35;100.00;97677.63;5063791;28;20416;-77
2023/01/26 05:50:44;;;;;;;215.43;41.00;;;1.00;99.90;;;-0.38;100.00;97682.19;5058573;28;20755;-77
2023/01/26 05:53:10;;;;;;;272.05;48.35;;;1.00;99.90;;;-0.35;100.00;97682.84;5069504;28;20400;-77
2023/01/26 05:55:36;;;;;;;281.95;47.42;;;1.00;99.90;;;-0.36;100.00;97686.41;5070379;28;20468;-77
2023/01/26 05:58:03;;;;;;;232.77;45.47;;;1.00;99.90;;;-0.36;100.00;97681.22;5068363;28;20494;-77
2023/01/26 06:00:29;;;;;;;217.60;41.88;;;1.00;99.90;;;-0.38;100.00;97681.41;5067237;28;20717;-77
2023/01/26 06:02:55;;;;;;;223.13;43.40;;;1.00;99.90;;;-0.35;100.00;97683.66;5069136;28;20507;-77
2023/01/26 06:05:21;;;;;;;222.82;42.80;;;1.00;99.90;;;-0.39;100.00;97687.59;5085013;28;20411;-78
2023/01/26 06:07:47;;;;;;;212.25;39.75;;;1.00;99.90;;;-0.38;100.00;97685.81;5070506;28;20427;-77
2023/01/26 06:10:13;;;;;;;238.57;44.05;;;1.00;99.90;;;-0.41;100.00;97686.97;5070183;28;20411;-78
2023/01/26 06:12:41;;;;;;;241.90;44.30;;;0.90;99.90;;;-0.46;100.00;97690.09;5077634;22;20437;-75
2023/01/26 06:15:11;;;;;;;211.18;43.15;;;0.90;99.90;;;-0.45;100.00;97685.66;5049924;28;20463;-76
2023/01/26 06:17:37;;;;;;;236.93;44.30;;;0.90;99.90;;;-0.45;100.00;97690.88;5050225;28;20897;-76
2023/01/26 06:20:04;;;;;;;215.07;42.08;;;0.90;99.90;;;-0.44;100.00;97689.88;5050027;28;20412;-76
2023/01/26 06:22:30;;;;;;;220.38;50.30;;;0.90;99.90;;;-0.43;100.00;97681.91;5055667;28;20491;-75
2023/01/26 06:24:56;;;;;;;175.27;40.55;;;0.90;99.90;;;-0.38;100.00;97688.41;5070109;28;20501;-76
2023/01/26 06:27:22;;;;;;;197.77;42.35;;;1.00;99.90;;;-0.41;100.00;97692.16;5070203;28;20439;-76
2023/01/26 06:29:48;;;;;;;227.88;45.65;;;1.00;99.90;;;-0.46;100.00;97690.09;5070296;28;20407;-75
2023/01/26 06:32:15;;;;;;;205.32;41.90;;;0.90;99.90;;;-0.49;100.00;97687.81;5069750;28;20468;-75
2023/01/26 06:34:41;;;;;;;185.85;39.75;;;0.90;99.90;;;-0.50;100.00;97688.00;5069901;28;20399;-76
2023/01/26 06:37:07;;;;;;;235.27;43.38;;;0.90;99.90;;;-0.50;100.00;97690.59;5069912;28;20424;-76
2023/01/26 06:39:33;;;;;;;218.35;41.10;;;0.90;99.90;;;-0.52;100.00;97685.56;5070019;28;20453;-77
2023/01/26 06:41:59;;;;;;;220.13;43.13;;;0.90;99.90;;;-0.49;100.00;97685.22;5069846;28;20396;-76
2023/01/26 06:44:25;;;;;;;227.00;45.93;;;0.90;99.90;;;-0.47;100.00;97690.25;5069696;28;20415;-75
2023/01/26 06:46:51;;;;;;;286.63;51.45;;;0.90;99.90;;;-0.49;100.00;97692.22;5069712;28;20833;-76
2023/01/26 06:49:18;;;;;;;229.82;44.10;;;0.90;99.90;;;-0.50;100.00;97685.38;5068827;28;20469;-76
2023/01/26 06:51:53;;;;;;;256.30;46.88;;;0.90;99.90;;;-0.51;100.00;97689.78;5060887;28;20405;-75
2023/01/26 06:54:19;;;;;;;221.40;42.78;;;0.90;99.90;;;-0.48;100.00;97686.84;5049663;28;20393;-75
2023/01/26 06:56:45;;;;;;;223.52;43.63;;;0.90;99.90;;;-0.47;100.00;97692.84;5042362;28;20407;-75
2023/01/26 06:59:11;;;;;;;242.75;45.97;;;0.90;99.90;;;-0.49;100.00;97698.22;5069750;28;20408;-76
2023/01/26 07:01:41;;;;;;;253.43;44.30;;;0.90;99.90;;;-0.50;100.00;97691.41;5072013;28;20419;-76
2023/01/26 07:04:07;;;;;;;221.52;43.25;;;0.90;99.90;;;-0.50;100.00;97690.59;5072816;28;20419;-74
2023/01/26 07:06:34;;;;;;;258.27;46.17;;;0.90;99.90;;;-0.50;100.00;97695.78;5073307;28;20418;-76
2023/01/26 07:09:00;;;;;;;257.07;48.93;;;0.90;99.90;;;-0.49;100.00;97692.22;5073194;28;20431;-75
2023/01/26 07:11:29;;;;;;;267.10;49.33;;;0.90;99.90;;;-0.50;100.00;97695.78;5073354;28;20427;-75
2023/01/26 07:13:55;;;;;;;199.88;41.17;;;0.90;99.90;;;-0.51;100.00;97691.56;5072792;28;20498;-75
2023/01/26 07:16:21;;;;;;;221.18;43.30;;;0.90;99.90;;;-0.49;100.00;97697.41;5073195;28;20410;-76
2023/01/26 07:18:46;;;;;;;230.25;44.67;;;0.90;99.90;;;-0.48;100.00;97697.25;5073191;28;20490;-77
2023/01/26 07:21:19;;;;;;;258.58;52.53;;;0.90;99.90;;;-0.43;100.00;97699.31;5073300;28;20417;-76
2023/01/26 07:23:46;;;;;;;220.95;45.17;;;0.90;99.90;;;-0.47;100.00;97700.66;5072949;28;20442;-76
2023/01/26 07:26:13;;;;;;;261.67;48.85;;;0.90;99.90;;;-0.53;100.00;97703.97;5073299;28;20410;-76
2023/01/26 07:28:39;;;;;;;218.63;44.28;;;0.90;99.90;;;-0.54;100.00;97702.34;5073201;28;20400;-76
2023/01/26 07:31:07;;;;;;;222.82;48.08;;;0.80;99.90;;;-0.51;100.00;97707.16;5073094;28;20407;-76
2023/01/26 07:33:34;;;;;;;215.73;47.17;;;0.90;99.90;;;-0.51;100.00;97710.59;5072599;28;20400;-76
2023/01/26 07:36:02;;;;;;;234.75;46.35;;;0.90;99.90;;;-0.53;100.00;97711.75;5068270;28;20482;-76
2023/01/26 07:38:31;;;;;;;225.52;44.45;;;0.90;99.90;;;-0.53;100.00;97704.75;5066177;28;20751;-76
2023/01/26 07:40:58;;;;;;;247.00;47.13;;;0.90;99.90;;;-0.52;100.00;97706.34;5072653;28;20465;-76
2023/01/26 07:43:25;;;;;;;230.20;45.87;;;0.90;99.90;;;-0.52;100.00;97702.94;5071723;28;20427;-77
2023/01/26 07:45:53;;;;;;;286.48;51.25;;;0.90;99.90;;;-0.55;100.00;97706.72;5070940;28;20553;-76
2023/01/26 07:48:20;;;;;;;282.27;53.03;;;0.80;99.90;;;-0.54;100.00;97708.34;5072203;28;20491;-77
2023/01/26 07:50:47;;;;;;;267.90;53.38;;;0.90;99.90;;;-0.52;100.00;97710.75;5072409;28;20407;-76
2023/01/26 07:53:21;;;;;;;251.02;53.95;;;0.80;99.90;;;-0.55;100.00;97703.31;5071226;28;20437;-76
2023/01/26 07:55:48;;;;;;;232.50;48.72;;;0.80;99.90;;;-0.59;100.00;97708.03;5071532;28;20916;-78
2023/01/26 07:58:17;;;;;;;268.67;52.00;;;0.80;99.90;;;-0.58;100.00;97708.84;5072016;28;20407;-76
2023/01/26 08:00:45;;;;;;;270.17;51.80;;;0.80;99.90;;;-0.57;100.00;97703.47;5070258;28;20503;-76
2023/01/26 08:03:12;;;;;;;286.60;55.15;;;0.80;99.90;;;-0.59;100.00;97704.63;5070903;28;20418;-77
2023/01/26 08:05:38;;;;;;;259.38;48.72;;;0.80;99.90;;;-0.61;100.00;97707.41;5062204;28;20784;-76
2023/01/26 08:08:04;;;;;;;248.80;46.72;;;0.80;99.90;;;-0.59;100.00;97702.03;5069162;28;20404;-76
2023/01/26 08:10:30;;;;;;;234.20;46.25;;;0.80;99.90;;;-0.56;100.00;97705.09;5072289;28;20915;-75
2023/01/26 08:12:58;;;;;;;293.02;54.72;;;0.80;99.90;;;-0.52;100.00;97705.53;5071115;28;20416;-76
2023/01/26 08:15:26;;;;;;;231.00;46.80;;;0.90;99.90;;;-0.51;100.00;97709.78;5071381;28;21076;-78
2023/01/26 08:17:53;;;;;;;270.80;54.92;;;0.80;99.90;;;-0.49;100.00;97715.63;5072251;28;20852;-78
2023/01/26 08:20:19;;;;;;;234.23;46.45;;;0.90;99.90;;;-0.48;100.00;97702.44;5070703;28;20399;-78
2023/01/26 08:22:45;;;;;;;270.75;66.93;;;0.90;99.90;;;-0.47;100.00;97709.28;5071762;28;20399;-78
2023/01/26 08:25:11;;;;;;;254.90;52.67;;;0.90;99.90;;;-0.47;100.00;97713.66;5071396;28;20491;-76
2023/01/26 08:27:37;;;;;;;235.60;48.67;;;0.90;99.90;;;-0.46;100.00;97716.09;5071718;28;20403;-76
2023/01/26 08:30:04;;;;;;;226.57;45.67;;;0.90;99.90;;;-0.48;100.00;97705.03;5071012;28;20876;-77
2023/01/26 08:32:31;;;;;;;281.00;51.70;;;0.90;99.90;;;-0.47;100.00;97705.84;5068922;28;20413;-77
2023/01/26 08:34:57;;;;;;;268.48;52.15;;;0.90;99.90;;;-0.50;100.00;97699.19;5058143;28;20409;-75
2023/01/26 08:37:23;;;;;;;257.40;48.95;;;0.90;99.90;;;-0.51;100.00;97699.38;5055422;28;20825;-75
2023/01/26 08:39:49;;;;;;;250.82;48.53;;;0.90;99.90;;;-0.50;100.00;97699.19;5068253;28;20411;-75
2023/01/26 08:42:19;;;;;;;275.80;50.40;;;0.90;99.90;;;-0.50;100.00;97696.59;5067436;28;20908;-76
2023/01/26 08:44:45;;;;;;;214.07;46.75;;;0.90;99.90;;;-0.44;100.00;97693.31;5070812;28;20936;-76
2023/01/26 08:47:11;;;;;;;243.35;47.45;;;0.90;99.90;;;-0.46;100.00;97694.47;5070884;28;20404;-76
2023/01/26 08:49:38;;;;;;;252.00;49.47;;;0.90;99.90;;;-0.43;100.00;97699.31;5069974;28;20476;-75
2023/01/26 08:52:04;;;;;;;246.40;50.13;;;0.90;99.90;;;-0.41;100.00;97694.75;5070682;28;20443;-76
2023/01/26 08:54:30;;;;;;;224.63;45.90;;;0.90;99.90;;;-0.42;100.00;97690.53;5053353;28;20492;-75
2023/01/26 08:56:56;;;;;;;228.30;46.38;;;1.00;99.90;;;-0.43;100.00;97692.31;5071368;28;20399;-76
2023/01/26 08:59:22;;;;;;;175.18;38.92;;;1.00;99.90;;;-0.41;100.00;97699.97;5052107;28;20416;-76
2023/01/26 09:01:48;;;;;;;199.68;42.35;;;1.00;99.90;;;-0.44;100.00;97695.09;5051042;28;20500;-75
2023/01/26 09:04:14;;;;;;;211.63;45.22;;;1.00;99.90;;;-0.43;100.00;97696.72;5061236;28;20427;-76
2023/01/26 09:06:41;;;;;;;232.02;47.40;;;0.90;99.90;;;-0.43;100.00;97696.72;5067931;28;20416;-75
2023/01/26 09:09:11;;;;;;;177.02;39.42;;;0.90;99.90;;;-0.42;100.00;97690.53;5058758;28;20416;-76
2023/01/26 09:11:37;;;;;;;217.23;44.88;;;0.90;99.90;;;-0.44;100.00;97693.31;5069930;28;20414;-78
2023/01/26 09:14:03;;;;;;;208.68;46.88;;;1.00;99.90;;;-0.42;100.00;97690.53;5061343;28;20417;-79
2023/01/26 09:16:29;;;;;;;256.98;51.95;;;0.90;99.90;;;-0.44;100.00;97697.69;5065519;28;20419;-80
2023/01/26 09:18:55;;;;;;;248.68;53.78;;;0.90;99.90;;;-0.42;100.00;97690.53;5064551;28;20407;-78
2023/01/26 09:21:24;;;;;;;232.82;51.38;;;0.90;99.90;;;-0.44;100.00;97693.31;5058628;28;20414;-76
2023/01/26 09:23:52;;;;;;;223.82;49.58;;;0.90;99.90;;;-0.46;100.00;97686.69;5054143;28;20465;-76
2023/01/26 09:26:17;;;;;;;259.30;59.30;;;0.90;99.90;;;-0.45;100.00;97690.88;5059570;28;20409;-76
2023/01/26 09:28:50;;;;;;;231.50;52.38;;;0.90;99.90;;;-0.46;100.00;97697.06;5067090;28;20889;-77
2023/01/26 09:31:16;;;;;;;241.35;49.80;;;0.90;99.90;;;-0.46;100.00;97691.88;5069116;28;20412;-77
2023/01/26 09:33:42;;;;;;;235.48;49.47;;;0.90;99.90;;;-0.45;100.00;97694.28;5070642;28;21132;-75
2023/01/26 09:36:10;;;;;;;195.85;43.92;;;0.90;99.90;;;-0.42;100.00;97695.72;5067644;28;20423;-75
2023/01/26 09:38:36;;;;;;;223.25;44.45;;;0.90;99.90;;;-0.40;100.00;97693.78;5070096;28;20454;-75
2023/01/26 09:41:21;;;;;;;223.50;46.72;;;1.00;99.90;;;-0.38;100.00;97705.59;5068500;28;20422;-78
2023/01/26 09:43:52;;;;;;;193.73;44.17;;;1.00;99.90;;;-0.38;100.00;97707.44;5064711;28;20495;-78
2023/01/26 09:46:23;;;;;;;196.35;43.83;;;1.00;99.90;;;-0.38;100.00;97711.81;5064369;28;20490;-77
2023/01/26 09:49:03;;;;;;;211.27;46.72;;;1.00;99.90;;;-0.38;100.00;97713.41;5065862;28;20443;-77
2023/01/26 09:51:36;;;;;;;192.07;43.78;;;1.00;99.90;;;-0.34;100.00;97706.06;5051011;28;20411;-76
2023/01/26 09:54:15;;;;;;;234.23;49.70;;;1.00;99.90;;;-0.31;100.00;97713.53;5069564;28;20742;-76
2023/01/26 09:56:43;;;;;;;199.40;45.03;;;1.10;99.90;;;-0.30;100.00;97706.56;5069414;28;20934;-77
2023/01/26 09:59:26;;;;;;;195.82;44.42;;;1.10;99.90;;;-0.30;100.00;97707.34;5069222;28;20430;-77
2023/01/26 10:01:58;;;;;;;168.20;42.33;;;1.00;99.90;;;-0.33;100.00;97707.69;5066551;28;20438;-76
2023/01/26 10:04:38;;;;;;;180.80;42.08;;;1.10;99.90;;;-0.40;100.00;97702.38;5057964;28;20431;-77
2023/01/26 10:07:09;;;;;;;192.20;43.95;;;1.00;99.90;;;-0.41;100.00;97699.97;5063231;28;20399;-77
2023/01/26 10:09:38;;;;;;;185.27;42.00;;;1.00;99.90;;;-0.41;100.00;97705.97;5065386;28;20403;-75
2023/01/26 10:12:15;;;;;;;170.82;41.88;;;1.00;99.90;;;-0.36;100.00;97705.44;5050963;28;20414;-75
2023/01/26 10:14:48;;;;;;;190.02;42.92;;;1.00;99.90;;;-0.44;100.00;97701.09;5068182;28;20400;-78
2023/01/26 10:17:18;;;;;;;181.43;41.70;;;0.90;99.90;;;-0.46;100.00;97710.09;5063738;28;20406;-78
2023/01/26 10:19:51;;;;;;;160.77;37.80;;;0.90;99.90;;;-0.45;100.00;97701.28;5066265;28;20404;-76
2023/01/26 10:22:25;;;;;;;168.20;39.03;;;0.90;99.90;;;-0.37;100.00;97698.59;5069758;28;20540;-76
2023/01/26 10:24:54;;;;;;;157.10;37.20;;;1.00;99.90;;;-0.40;100.00;97699.78;5069102;28;20465;-79
2023/01/26 10:27:22;;;;;;;146.48;35.13;;;1.00;99.90;;;-0.43;100.00;97689.72;5069786;28;20424;-76
2023/01/26 10:29:48;;;;;;;137.80;33.90;;;1.00;99.90;;;-0.42;100.00;97688.75;5069722;28;20404;-76
2023/01/26 10:32:15;;;;;;;148.98;36.42;;;1.00;99.90;;;-0.46;100.00;97692.69;5069631;28;20415;-76
2023/01/26 10:34:43;;;;;;;143.27;34.72;;;0.90;99.90;;;-0.50;100.00;97694.00;5070307;28;20780;-76
2023/01/26 10:37:20;;;;;;;159.07;36.00;;;0.90;99.90;;;-0.50;100.00;97693.19;5074003;28;20406;-75
2023/01/26 10:39:59;;;;;;;135.77;33.75;;;0.90;99.90;;;-0.51;100.00;97702.78;5073149;28;20403;-75
2023/01/26 10:42:30;;;;;;;129.82;31.48;;;0.90;99.90;;;-0.46;100.00;97702.28;5073302;28;20407;-76
2023/01/26 10:44:57;;;;;;;122.40;31.23;;;0.90;99.90;;;-0.42;100.00;97700.94;5073770;28;20419;-74
2023/01/26 10:47:24;;;;;;;131.07;32.73;;;0.90;99.90;;;-0.50;100.00;97694.00;5073780;28;20885;-76
2023/01/26 10:49:50;;;;;;;122.45;32.20;;;0.80;99.90;;;-0.63;100.00;97696.38;5073194;28;20437;-77